createdAt,value
2022-10-19T00:00:01.814Z,37
2022-10-19T00:04:43.997Z,35.8
2022-10-19T00:09:26.306Z,38.09
2022-10-19T00:14:08.664Z,37
2022-10-19T00:18:49.944Z,36.59
2022-10-19T00:23:31.243Z,36.7
2022-10-19T00:28:13.469Z,34.59
2022-10-19T00:32:54.762Z,33.5
2022-10-19T00:37:36.071Z,28.5
2022-10-19T00:42:18.383Z,28.2
2022-10-19T00:47:00.689Z,26.5
2022-10-19T00:51:42.901Z,26.4
2022-10-19T00:56:25.220Z,28.2
2022-10-19T01:01:07.536Z,28.5
2022-10-19T01:05:49.733Z,28.2
2022-10-19T01:10:32.045Z,32.59
2022-10-19T01:15:14.355Z,31.5
2022-10-19T01:19:56.568Z,32.2
2022-10-19T01:24:38.918Z,33.5
2022-10-19T01:29:21.190Z,35.3
2022-10-19T01:34:03.506Z,30.7
2022-10-19T01:38:44.713Z,31.6
2022-10-19T01:43:27.073Z,32
2022-10-19T01:48:09.335Z,32.4
2022-10-19T01:52:51.545Z,31.6
2022-10-19T01:57:33.859Z,29.6
2022-10-19T02:02:16.172Z,28.8
2022-10-19T02:06:58.379Z,29.5
2022-10-19T02:11:39.696Z,27.7
2022-10-19T02:16:20.998Z,27.1
2022-10-19T02:21:03.325Z,29.1
2022-10-19T02:25:45.623Z,27.8
2022-10-19T02:30:27.832Z,27.3
2022-10-19T02:35:10.149Z,30.3
2022-10-19T02:39:52.465Z,28.9
2022-10-19T02:44:34.666Z,29.4
2022-10-19T02:49:16.995Z,27.9
2022-10-19T02:53:59.290Z,28.4
2022-10-19T02:58:41.528Z,27.4
2022-10-19T03:03:23.810Z,25.2
2022-10-19T03:08:06.128Z,24
2022-10-19T03:12:48.336Z,27.6
2022-10-19T03:17:29.644Z,23
2022-10-19T03:22:11.961Z,20.4
2022-10-19T03:26:54.271Z,24.8
2022-10-19T03:31:36.480Z,21.3
2022-10-19T03:36:18.789Z,20.7
2022-10-19T03:41:01.101Z,21.4
2022-10-19T03:45:43.313Z,28.7
2022-10-19T03:50:24.625Z,20
2022-10-19T03:55:05.931Z,23.1
2022-10-19T03:59:47.239Z,21.7
2022-10-19T04:04:28.552Z,20
2022-10-19T04:09:10.861Z,17.5
2022-10-19T04:13:53.088Z,15
2022-10-19T04:18:35.388Z,14.4
2022-10-19T04:23:17.697Z,16.4
2022-10-19T04:27:59.936Z,15
2022-10-19T04:32:42.233Z,11.8
2022-10-19T04:42:06.843Z,14.6
2022-10-19T04:46:49.051Z,13.8
2022-10-19T04:51:31.364Z,15.5
2022-10-19T04:56:13.675Z,16.29
2022-10-19T05:00:55.892Z,15.8
2022-10-19T05:05:37.199Z,18.79
2022-10-19T05:10:19.507Z,21
2022-10-19T05:15:01.818Z,21.1
2022-10-19T05:19:44.026Z,19.9
2022-10-19T05:24:26.339Z,23.9
2022-10-19T05:29:08.655Z,23.1
2022-10-19T05:33:50.983Z,24.1
2022-10-19T05:38:33.205Z,26.5
2022-10-19T05:43:14.485Z,25.8
2022-10-19T05:47:55.819Z,27.7
2022-10-19T05:52:37.106Z,38.09
2022-10-19T05:57:18.413Z,34.59
2022-10-19T06:02:00.636Z,30.1
2022-10-19T06:06:42.988Z,36.8
2022-10-19T06:11:25.247Z,20.29
2022-10-19T06:16:07.535Z,22.1
2022-10-19T06:20:49.768Z,21.2
2022-10-19T06:25:32.076Z,22.4
2022-10-19T06:30:14.395Z,22
2022-10-19T06:34:56.602Z,22.8
2022-10-19T06:39:38.913Z,22
2022-10-19T06:44:21.246Z,24.4
2022-10-19T06:49:03.434Z,25.9
2022-10-19T06:53:45.747Z,26.5
2022-10-19T06:58:27.147Z,23.3
2022-10-19T07:03:09.482Z,22.3
2022-10-19T07:07:51.575Z,18.5
2022-10-19T07:12:33.898Z,25.3
2022-10-19T07:17:16.199Z,20.7
2022-10-19T07:21:58.410Z,18.5
2022-10-19T07:26:40.718Z,20.8
2022-10-19T07:31:22.033Z,18.7
2022-10-19T07:36:03.350Z,20.29
2022-10-19T07:40:45.652Z,23.3
2022-10-19T07:45:27.859Z,19.29
2022-10-19T07:50:10.176Z,18.1
2022-10-19T07:54:52.511Z,18.5
2022-10-19T07:59:34.702Z,18.7
2022-10-19T08:04:17.007Z,19.5
2022-10-19T08:08:59.316Z,18.6
2022-10-19T08:13:41.527Z,13.5
2022-10-19T08:18:23.953Z,13
2022-10-19T08:23:06.161Z,13.9
2022-10-19T08:27:47.460Z,16
2022-10-19T08:32:29.733Z,12.7
2022-10-19T08:37:11.982Z,12.6
2022-10-19T08:41:54.292Z,10.7
2022-10-19T08:46:36.508Z,12.3
2022-10-19T08:51:18.815Z,11.7
2022-10-19T08:56:01.126Z,12.9
2022-10-19T09:00:43.429Z,12.8
2022-10-19T09:05:25.656Z,11.3
2022-10-19T09:10:06.959Z,10.9
2022-10-19T09:14:48.267Z,10.3
2022-10-19T09:19:29.579Z,10.1
2022-10-19T09:24:10.888Z,8.89
2022-10-19T09:28:53.098Z,8.7
2022-10-19T09:33:35.493Z,6.8
2022-10-19T09:38:17.721Z,7
2022-10-19T09:42:59.936Z,6.9
2022-10-19T09:47:42.255Z,7.4
2022-10-19T09:52:24.557Z,6
2022-10-19T09:57:06.769Z,6
2022-10-19T10:01:49.082Z,5.9
2022-10-19T10:06:31.392Z,5.8
2022-10-19T10:11:13.605Z,6.1
2022-10-19T10:15:55.918Z,5.9
2022-10-19T10:20:38.231Z,5.3
2022-10-19T10:25:19.533Z,5.6
2022-10-19T10:30:01.745Z,7
2022-10-19T10:34:44.055Z,6.7
2022-10-19T10:39:26.373Z,7.8
2022-10-19T10:44:08.579Z,8
2022-10-19T10:48:50.953Z,7.6
2022-10-19T10:53:33.202Z,8.39
2022-10-19T10:58:14.514Z,8.2
2022-10-19T11:02:55.885Z,9.3
2022-10-19T11:07:38.035Z,9.39
2022-10-19T11:12:20.371Z,7.7
2022-10-19T11:17:02.660Z,9.7
2022-10-19T11:21:44.870Z,8.39
2022-10-19T11:26:27.182Z,9.1
2022-10-19T11:31:09.491Z,9.6
2022-10-19T11:35:51.726Z,9
2022-10-19T11:40:34.028Z,8.5
2022-10-19T11:45:16.329Z,9.2
2022-10-19T11:49:58.541Z,9.3
2022-10-19T11:54:40.848Z,9.2
2022-10-19T11:59:23.164Z,9.39
2022-10-19T12:04:04.422Z,8.1
2022-10-19T12:08:46.685Z,7.2
2022-10-19T12:13:28.995Z,7.1
2022-10-19T12:18:11.203Z,7.1
2022-10-19T12:22:53.513Z,7.1
2022-10-19T12:27:35.825Z,6.4
2022-10-19T12:32:18.143Z,6.6
2022-10-19T12:36:59.451Z,5.7
2022-10-19T12:41:41.657Z,6.4
2022-10-19T12:46:22.972Z,6.6
2022-10-19T12:51:05.283Z,5.6
2022-10-19T12:55:47.496Z,5.1
2022-10-19T13:00:29.846Z,5.9
2022-10-19T13:05:12.113Z,4.6
2022-10-19T13:09:54.403Z,5.4
2022-10-19T13:14:36.710Z,4.5
2022-10-19T13:19:18.984Z,4.69
2022-10-19T13:24:01.163Z,4.4
2022-10-19T13:28:43.595Z,4.9
2022-10-19T13:33:25.791Z,5
2022-10-19T13:38:08.102Z,4.69
2022-10-19T13:42:50.312Z,4
2022-10-19T13:47:31.622Z,3.5
2022-10-19T13:52:13.970Z,5.6
2022-10-19T13:56:56.147Z,6
2022-10-19T14:01:38.456Z,5
2022-10-19T14:06:20.773Z,6.2
2022-10-19T14:11:02.996Z,4.8
2022-10-19T14:15:44.295Z,5.3
2022-10-19T14:20:25.602Z,5.3
2022-10-19T14:25:06.910Z,5.6
2022-10-19T14:29:48.221Z,5.5
2022-10-19T14:34:29.534Z,5
2022-10-19T14:39:10.881Z,5.3
2022-10-19T14:43:52.153Z,5.4
2022-10-19T14:48:33.465Z,5.3
2022-10-19T14:53:15.774Z,5.1
2022-10-19T14:57:57.992Z,4.9
2022-10-19T15:02:40.297Z,4.19
2022-10-19T15:07:22.611Z,4.9
2022-10-19T15:12:04.819Z,5.4
2022-10-19T15:16:47.150Z,6.2
2022-10-19T15:21:29.442Z,5.7
2022-10-19T15:26:11.653Z,5.6
2022-10-19T15:30:53.965Z,7.1
2022-10-19T15:35:36.275Z,6.7
2022-10-19T15:40:18.488Z,6.8
2022-10-19T15:45:00.840Z,6.7
2022-10-19T15:49:42.120Z,7.5
2022-10-19T15:54:24.321Z,6.6
2022-10-19T15:59:06.637Z,6.8
2022-10-19T16:03:48.945Z,8
2022-10-19T16:08:31.158Z,8.8
2022-10-19T16:13:13.465Z,7.3
2022-10-19T16:17:55.792Z,9.3
2022-10-19T16:22:37.099Z,8.5
2022-10-19T16:27:18.394Z,10.5
2022-10-19T16:32:00.609Z,9.8
2022-10-19T16:36:41.915Z,12.1
2022-10-19T16:41:23.227Z,14.6
2022-10-19T16:46:05.537Z,21.7
2022-10-19T16:50:47.846Z,22.8
2022-10-19T16:55:30.071Z,23.6
2022-10-19T17:00:12.367Z,26.3
2022-10-19T17:04:54.620Z,18
2022-10-19T17:09:36.933Z,14.8
2022-10-19T17:14:19.244Z,13.4
2022-10-19T17:19:01.457Z,11.7
2022-10-19T17:23:43.767Z,14.4
2022-10-19T17:28:26.076Z,14.3
2022-10-19T17:33:08.285Z,19.29
2022-10-19T17:37:50.601Z,18.6
2022-10-19T17:42:31.909Z,17.5
2022-10-19T17:47:14.219Z,14.5
2022-10-19T17:51:56.434Z,18.2
2022-10-19T17:56:38.740Z,15.3
2022-10-19T18:01:21.054Z,15.3
2022-10-19T18:06:03.263Z,14.2
2022-10-19T18:10:45.574Z,15.9
2022-10-19T18:15:26.883Z,14.6
2022-10-19T18:20:08.197Z,14.4
2022-10-19T18:24:50.513Z,16.79
2022-10-19T18:29:32.717Z,14
2022-10-19T18:34:15.025Z,15.8
2022-10-19T18:38:57.367Z,14.8
2022-10-19T18:43:39.549Z,15.3
2022-10-19T18:48:21.861Z,15.6
2022-10-19T18:53:04.165Z,14.1
2022-10-19T18:57:46.403Z,14.4
2022-10-19T19:02:28.713Z,14.3
2022-10-19T19:07:11.001Z,12
2022-10-19T19:11:53.220Z,13.8
2022-10-19T19:16:35.526Z,12.6
2022-10-19T19:21:16.832Z,13.7
2022-10-19T19:25:59.140Z,12.6
2022-10-19T19:30:41.355Z,10.7
2022-10-19T19:35:23.664Z,10.7
2022-10-19T19:40:05.992Z,10.7
2022-10-19T19:44:48.285Z,12.9
2022-10-19T19:49:30.500Z,10.4
2022-10-19T19:54:11.804Z,11.4
2022-10-19T19:58:53.114Z,11.9
2022-10-19T20:03:34.424Z,12.5
2022-10-19T20:08:15.733Z,12.7
2022-10-19T20:12:58.046Z,11.7
2022-10-19T20:17:39.352Z,12
2022-10-19T20:22:20.667Z,12.5
2022-10-19T20:27:02.877Z,13.6
2022-10-19T20:31:45.182Z,13.1
2022-10-19T20:36:27.496Z,12.7
2022-10-19T20:41:09.702Z,12.3
2022-10-19T20:45:52.013Z,12.8
2022-10-19T20:50:34.324Z,12.9
2022-10-19T20:55:16.541Z,13.1
2022-10-19T20:59:58.846Z,14.4
2022-10-19T21:04:41.173Z,13.6
2022-10-19T21:09:23.386Z,13.5
2022-10-19T21:14:05.709Z,13.6
2022-10-19T21:18:47.994Z,13.2
2022-10-19T21:23:29.301Z,12.5
2022-10-19T21:28:11.513Z,12.9
2022-10-19T21:32:53.870Z,13.1
2022-10-19T21:37:36.151Z,12.9
2022-10-19T21:42:18.373Z,11.3
2022-10-19T21:47:00.658Z,10.8
2022-10-19T21:51:42.993Z,11.9
2022-10-19T21:56:24.276Z,12.2
2022-10-19T22:01:05.584Z,11.5
2022-10-19T22:05:47.804Z,10
2022-10-19T22:10:30.104Z,10.9
2022-10-19T22:15:12.423Z,10.7
2022-10-19T22:19:54.724Z,11.8
2022-10-19T22:24:36.939Z,11.2
2022-10-19T22:29:19.247Z,11.6
2022-10-19T22:34:01.583Z,11.8
2022-10-19T22:38:43.776Z,11.2
2022-10-19T22:43:26.085Z,12.4
2022-10-19T22:48:08.392Z,12.6
2022-10-19T22:52:50.607Z,12.6
2022-10-19T22:57:32.929Z,12.3
2022-10-19T23:02:14.225Z,12.9
2022-10-19T23:06:56.529Z,12
2022-10-19T23:11:38.742Z,13.3
2022-10-19T23:16:21.054Z,12.3
2022-10-19T23:21:03.365Z,13.5
2022-10-19T23:25:45.576Z,13.1
2022-10-19T23:30:27.895Z,13.1
2022-10-19T23:35:09.203Z,13
2022-10-19T23:39:50.510Z,12.8
2022-10-19T23:44:32.817Z,13.7
2022-10-19T23:49:15.034Z,15
2022-10-19T23:53:57.337Z,14.2
2022-10-19T23:58:39.654Z,14.5
